createdAt,value
2022-10-14T00:00:41.188Z,96.29
2022-10-14T00:02:54.715Z,96.49
2022-10-14T00:05:10.121Z,95.87
2022-10-14T00:07:24.789Z,95.96
2022-10-14T00:09:40.040Z,95.66
2022-10-14T00:11:58.278Z,95.67
2022-10-14T00:14:16.556Z,95.51
2022-10-14T00:16:31.143Z,95.61
2022-10-14T00:18:48.191Z,95.54
2022-10-14T00:21:03.490Z,95.89
2022-10-14T00:23:16.976Z,95.33
2022-10-14T00:25:32.011Z,95.91
2022-10-14T00:27:45.462Z,95.64
2022-10-14T00:30:02.883Z,96.31
2022-10-14T00:32:17.629Z,96.22
2022-10-14T00:34:44.056Z,96.45
2022-10-14T00:36:57.150Z,96.51
2022-10-14T00:39:11.956Z,96.89
2022-10-14T00:41:34.265Z,97.15
2022-10-14T00:44:02.815Z,97.07
2022-10-14T00:46:15.021Z,97.03
2022-10-14T00:48:29.890Z,97.00
2022-10-14T00:50:35.614Z,97.38
2022-10-14T00:52:41.095Z,97.36
2022-10-14T00:54:49.297Z,97.22
2022-10-14T00:56:52.558Z,97.57
2022-10-14T00:59:07.058Z,97.31
2022-10-14T01:01:20.298Z,97.51
2022-10-14T01:03:33.496Z,97.49
2022-10-14T01:05:56.027Z,97.43
2022-10-14T01:08:20.393Z,97.40
2022-10-14T01:10:40.299Z,97.05
2022-10-14T01:13:06.543Z,97.54
2022-10-14T01:15:40.946Z,97.46
2022-10-14T01:18:10.237Z,96.80
2022-10-14T01:20:30.645Z,97.13
2022-10-14T01:22:54.634Z,96.96
2022-10-14T01:25:32.265Z,96.66
2022-10-14T01:28:16.673Z,96.45
2022-10-14T01:30:58.293Z,96.06
2022-10-14T01:33:16.544Z,96.26
2022-10-14T01:35:37.907Z,96.59
2022-10-14T01:37:58.401Z,96.09
2022-10-14T01:40:17.512Z,95.93
2022-10-14T01:42:35.447Z,96.09
2022-10-14T01:44:56.819Z,96.11
2022-10-14T01:47:15.373Z,96.59
2022-10-14T01:49:40.342Z,96.41
2022-10-14T01:52:04.489Z,96.91
2022-10-14T01:54:27.995Z,97.10
2022-10-14T01:56:45.444Z,97.58
2022-10-14T01:58:50.327Z,97.99
2022-10-14T02:00:52.404Z,98.64
2022-10-14T02:02:54.709Z,99.35
2022-10-14T02:04:56.832Z,99.52
2022-10-14T02:07:16.703Z,100.00
2022-10-14T02:10:01.360Z,100.00
2022-10-14T02:12:21.497Z,100.00
2022-10-14T02:14:38.596Z,100.00
2022-10-14T02:17:21.577Z,100.00
2022-10-14T02:19:44.781Z,100.00
2022-10-14T02:22:10.946Z,100.00
2022-10-14T02:24:29.735Z,100.00
2022-10-14T02:26:44.496Z,100.00
2022-10-14T02:29:12.506Z,100.00
2022-10-14T02:31:29.213Z,100.00
2022-10-14T02:33:48.709Z,100.00
2022-10-14T02:35:52.187Z,100.00
2022-10-14T02:37:56.446Z,100.00
2022-10-14T02:40:05.230Z,100.00
2022-10-14T02:42:07.867Z,100.00
2022-10-14T02:44:21.702Z,100.00
2022-10-14T02:46:39.221Z,100.00
2022-10-14T02:48:55.144Z,100.00
2022-10-14T02:50:57.242Z,100.00
2022-10-14T02:52:59.528Z,100.00
2022-10-14T02:55:01.855Z,100.00
2022-10-14T02:57:05.667Z,100.00
2022-10-14T02:59:18.672Z,100.00
2022-10-14T03:01:45.883Z,100.00
2022-10-14T03:04:00.488Z,100.00
2022-10-14T03:06:14.733Z,100.00
2022-10-14T03:08:28.923Z,100.00
2022-10-14T03:10:48.232Z,100.00
2022-10-14T03:13:02.331Z,100.00
2022-10-14T03:15:21.098Z,100.00
2022-10-14T03:17:33.875Z,100.00
2022-10-14T03:19:51.220Z,100.00
2022-10-14T03:22:05.284Z,100.00
2022-10-14T03:24:19.639Z,100.00
2022-10-14T03:26:38.607Z,100.00
2022-10-14T03:28:52.795Z,100.00
2022-10-14T03:31:10.266Z,100.00
2022-10-14T03:33:43.619Z,100.00
2022-10-14T03:35:59.648Z,100.00
2022-10-14T03:38:26.398Z,100.00
2022-10-14T03:40:40.549Z,100.00
2022-10-14T03:43:00.976Z,100.00
2022-10-14T03:45:21.819Z,100.00
2022-10-14T03:47:35.982Z,100.00
2022-10-14T03:49:48.778Z,100.00
2022-10-14T03:52:09.281Z,100.00
2022-10-14T03:54:23.534Z,100.00
2022-10-14T03:56:37.623Z,100.00
2022-10-14T03:58:40.138Z,100.00
2022-10-14T04:00:47.279Z,100.00
2022-10-14T04:03:05.569Z,100.00
2022-10-14T04:05:14.773Z,100.00
2022-10-14T04:07:30.260Z,100.00
2022-10-14T04:09:44.418Z,100.00
2022-10-14T04:11:59.068Z,100.00
2022-10-14T04:14:24.506Z,100.00
2022-10-14T04:16:27.282Z,100.00
2022-10-14T04:18:37.158Z,100.00
2022-10-14T04:20:40.377Z,100.00
2022-10-14T04:22:59.332Z,100.00
2022-10-14T04:25:13.487Z,100.00
2022-10-14T04:27:27.781Z,100.00
2022-10-14T04:29:48.275Z,100.00
2022-10-14T04:32:13.113Z,100.00
2022-10-14T04:34:26.379Z,100.00
2022-10-14T04:36:40.742Z,100.00
2022-10-14T04:39:07.532Z,100.00
2022-10-14T04:41:23.315Z,100.00
2022-10-14T04:43:36.105Z,100.00
2022-10-14T04:46:04.605Z,81.56
2022-10-14T04:48:20.333Z,67.33
2022-10-14T04:50:34.439Z,56.13
2022-10-14T04:53:10.575Z,47.80
2022-10-14T04:55:33.903Z,41.99
2022-10-14T04:57:47.428Z,37.08
2022-10-14T05:00:02.145Z,35.10
2022-10-14T05:02:51.160Z,32.95
2022-10-14T05:05:06.981Z,30.19
2022-10-14T05:07:24.292Z,28.70
2022-10-14T05:09:48.286Z,28.10
2022-10-14T05:12:12.032Z,26.20
2022-10-14T05:14:22.751Z,26.05
2022-10-14T05:16:35.077Z,25.19
2022-10-14T05:18:37.726Z,25.16
2022-10-14T05:20:44.752Z,25.35
2022-10-14T05:22:47.668Z,25.32
2022-10-14T05:24:50.299Z,25.78
2022-10-14T05:26:53.272Z,25.14
2022-10-14T05:28:55.621Z,25.31
2022-10-14T05:30:58.679Z,24.64
2022-10-14T05:33:01.001Z,24.80
2022-10-14T05:35:03.137Z,24.14
2022-10-14T05:37:22.182Z,24.89
2022-10-14T05:39:37.972Z,24.69
2022-10-14T05:41:52.152Z,24.35
2022-10-14T05:43:59.006Z,24.20
2022-10-14T05:46:01.290Z,24.05
2022-10-14T05:48:06.276Z,24.47
2022-10-14T05:50:08.732Z,25.21
2022-10-14T05:52:22.639Z,25.63
2022-10-14T05:54:36.821Z,27.76
2022-10-14T05:56:52.520Z,30.06
2022-10-14T05:59:18.338Z,33.39
2022-10-14T06:01:34.685Z,36.45
2022-10-14T06:03:50.984Z,39.89
2022-10-14T06:06:08.298Z,42.64
2022-10-14T06:08:22.588Z,46.02
2022-10-14T06:10:36.196Z,49.38
2022-10-14T06:12:50.284Z,51.62
2022-10-14T06:15:04.545Z,54.12
2022-10-14T06:17:20.227Z,55.91
2022-10-14T06:19:34.213Z,58.12
2022-10-14T06:21:36.339Z,59.29
2022-10-14T06:23:38.447Z,61.28
2022-10-14T06:25:40.610Z,62.49
2022-10-14T06:27:42.755Z,64.00
2022-10-14T06:29:56.411Z,65.32
2022-10-14T06:32:10.634Z,66.62
2022-10-14T06:34:24.930Z,67.56
2022-10-14T06:36:39.084Z,68.82
2022-10-14T06:38:53.424Z,69.55
2022-10-14T06:41:07.455Z,70.57
2022-10-14T06:43:22.546Z,71.42
2022-10-14T06:45:35.818Z,71.56
2022-10-14T06:47:50.023Z,72.61
2022-10-14T06:50:07.280Z,72.86
2022-10-14T06:52:20.203Z,73.30
2022-10-14T06:54:38.913Z,73.07
2022-10-14T06:56:54.703Z,72.86
2022-10-14T06:58:58.008Z,73.15
2022-10-14T07:01:07.074Z,73.74
2022-10-14T07:03:09.230Z,74.08
2022-10-14T07:05:11.550Z,74.61
2022-10-14T07:07:25.163Z,73.04
2022-10-14T07:09:39.420Z,72.75
2022-10-14T07:11:52.132Z,73.17
2022-10-14T07:14:06.078Z,73.50
2022-10-14T07:16:20.316Z,72.68
2022-10-14T07:18:34.488Z,72.18
2022-10-14T07:20:47.363Z,71.46
2022-10-14T07:23:01.792Z,70.03
2022-10-14T07:25:14.238Z,68.34
2022-10-14T07:27:28.866Z,67.50
2022-10-14T07:29:43.701Z,66.69
2022-10-14T07:32:22.812Z,65.43
2022-10-14T07:34:37.115Z,66.03
2022-10-14T07:36:39.505Z,65.40
2022-10-14T07:38:46.012Z,65.50
2022-10-14T07:40:57.816Z,66.51
2022-10-14T07:43:01.847Z,66.93
2022-10-14T07:45:17.689Z,66.72
2022-10-14T07:47:33.001Z,66.94
2022-10-14T07:49:47.489Z,66.34
2022-10-14T07:51:49.924Z,66.56
2022-10-14T07:53:53.225Z,67.91
2022-10-14T07:55:58.913Z,67.17
2022-10-14T07:58:01.062Z,66.76
2022-10-14T08:00:15.406Z,67.26
2022-10-14T08:02:29.509Z,67.73
2022-10-14T08:04:43.766Z,67.40
2022-10-14T08:06:58.197Z,67.47
2022-10-14T08:09:12.386Z,67.58
2022-10-14T08:11:28.357Z,67.88
2022-10-14T08:13:45.289Z,67.60
2022-10-14T08:15:59.666Z,67.67
2022-10-14T08:18:13.662Z,67.39
2022-10-14T08:20:27.001Z,66.85
2022-10-14T08:22:43.337Z,66.58
2022-10-14T08:24:57.315Z,65.88
2022-10-14T08:27:10.849Z,65.77
2022-10-14T08:29:13.436Z,65.06
2022-10-14T08:31:16.598Z,65.02
2022-10-14T08:33:18.740Z,64.59
2022-10-14T08:35:21.228Z,64.36
2022-10-14T08:37:34.829Z,64.86
2022-10-14T08:39:48.681Z,65.63
2022-10-14T08:42:19.267Z,66.75
2022-10-14T08:44:34.034Z,67.20
2022-10-14T08:46:36.125Z,66.42
2022-10-14T08:48:39.577Z,67.23
2022-10-14T08:50:49.537Z,67.50
2022-10-14T08:53:10.525Z,67.76
2022-10-14T08:55:36.889Z,68.93
2022-10-14T08:58:20.095Z,68.37
2022-10-14T09:00:38.072Z,68.14
2022-10-14T09:02:52.042Z,68.62
2022-10-14T09:05:04.681Z,68.80
2022-10-14T09:07:20.098Z,69.15
2022-10-14T09:09:46.357Z,69.61
2022-10-14T09:12:06.288Z,69.13
2022-10-14T09:14:24.576Z,67.88
2022-10-14T09:16:40.357Z,66.77
2022-10-14T09:18:59.015Z,66.06
2022-10-14T09:21:40.424Z,65.02
2022-10-14T09:24:10.290Z,64.18
2022-10-14T09:26:24.359Z,63.52
2022-10-14T09:28:41.375Z,63.14
2022-10-14T09:30:55.392Z,63.42
2022-10-14T09:33:20.904Z,62.67
2022-10-14T09:35:42.471Z,62.73
2022-10-14T09:37:55.661Z,63.16
2022-10-14T09:40:12.662Z,64.27
2022-10-14T09:42:40.678Z,64.87
2022-10-14T09:44:42.809Z,64.93
2022-10-14T09:47:08.164Z,65.31
2022-10-14T09:49:19.353Z,64.72
2022-10-14T09:51:23.969Z,64.72
2022-10-14T09:53:56.504Z,65.11
2022-10-14T09:56:10.834Z,65.65
2022-10-14T09:58:32.618Z,66.40
2022-10-14T10:00:47.481Z,66.78
2022-10-14T10:03:01.503Z,67.59
2022-10-14T10:05:29.230Z,67.80
2022-10-14T10:07:41.287Z,68.04
2022-10-14T10:09:59.749Z,68.69
2022-10-14T10:12:31.680Z,69.57
2022-10-14T10:14:59.143Z,69.58
2022-10-14T10:17:19.428Z,69.32
2022-10-14T10:19:44.127Z,68.80
2022-10-14T10:24:37.368Z,68.23
2022-10-14T10:26:51.699Z,68.85
2022-10-14T10:29:06.315Z,69.19
2022-10-14T10:31:32.521Z,69.77
2022-10-14T10:34:13.436Z,70.53
2022-10-14T10:36:33.645Z,70.68
2022-10-14T10:39:13.553Z,71.21
2022-10-14T10:41:32.970Z,71.26
2022-10-14T10:44:01.567Z,70.94
2022-10-14T10:46:17.852Z,70.22
2022-10-14T10:48:45.410Z,69.58
2022-10-14T10:51:26.877Z,68.88
2022-10-14T10:53:43.565Z,68.79
2022-10-14T10:56:08.429Z,68.68
2022-10-14T10:58:49.982Z,68.56
2022-10-14T11:01:08.160Z,68.75
2022-10-14T11:04:27.170Z,68.06
2022-10-14T11:07:28.297Z,68.26
2022-10-14T11:10:13.654Z,68.92
2022-10-14T11:12:59.904Z,70.14
2022-10-14T11:15:48.572Z,71.35
2022-10-14T11:18:20.847Z,71.61
2022-10-14T11:20:41.017Z,71.78
2022-10-14T11:23:24.300Z,72.03
2022-10-14T11:25:36.311Z,72.18
2022-10-14T11:28:13.436Z,71.99
2022-10-14T11:30:19.049Z,72.13
2022-10-14T11:32:45.869Z,72.65
2022-10-14T11:34:48.219Z,73.40
2022-10-14T11:37:09.779Z,73.21
2022-10-14T11:39:59.635Z,72.83
2022-10-14T11:42:41.522Z,73.80
2022-10-14T11:45:29.096Z,75.59
2022-10-14T11:48:15.679Z,76.26
2022-10-14T11:50:40.784Z,75.17
2022-10-14T11:53:13.302Z,75.86
2022-10-14T11:55:46.378Z,76.00
2022-10-14T11:58:18.455Z,76.40
2022-10-14T12:00:36.238Z,76.50
2022-10-14T12:03:20.665Z,77.12
2022-10-14T12:05:47.946Z,77.40
2022-10-14T12:08:02.852Z,76.75
2022-10-14T12:10:15.528Z,77.24
2022-10-14T12:12:22.496Z,77.15
2022-10-14T12:14:44.943Z,77.80
2022-10-14T12:17:00.432Z,77.98
2022-10-14T12:19:19.635Z,78.01
2022-10-14T12:22:12.784Z,77.89
2022-10-14T12:24:31.983Z,78.39
2022-10-14T12:26:57.584Z,78.12
2022-10-14T12:29:15.581Z,77.96
2022-10-14T12:31:38.903Z,78.23
2022-10-14T12:34:30.945Z,79.28
2022-10-14T12:36:45.921Z,79.08
2022-10-14T12:39:34.903Z,79.84
2022-10-14T12:42:10.140Z,79.56
2022-10-14T12:44:49.888Z,80.56
2022-10-14T12:46:53.637Z,80.04
2022-10-14T12:48:55.884Z,80.14
2022-10-14T12:51:17.983Z,80.50
2022-10-14T12:53:34.029Z,81.02
2022-10-14T12:55:51.039Z,80.69
2022-10-14T12:58:06.510Z,80.50
2022-10-14T13:00:36.182Z,80.27
2022-10-14T13:02:44.896Z,80.59
2022-10-14T13:04:53.579Z,81.62
2022-10-14T13:07:35.699Z,80.87
2022-10-14T13:09:58.727Z,80.81
2022-10-14T13:12:20.215Z,81.41
2022-10-14T13:14:58.439Z,81.31
2022-10-14T13:17:04.536Z,80.76
2022-10-14T13:19:38.001Z,80.82
2022-10-14T13:21:43.071Z,80.68
2022-10-14T13:23:57.579Z,80.17
2022-10-14T13:26:10.434Z,80.13
2022-10-14T13:28:35.821Z,79.83
2022-10-14T13:30:59.218Z,79.65
2022-10-14T13:33:21.127Z,79.56
2022-10-14T13:36:05.770Z,79.55
2022-10-14T13:38:24.090Z,79.70
2022-10-14T13:40:44.396Z,79.25
2022-10-14T13:43:00.713Z,79.39
2022-10-14T13:45:15.861Z,79.22
2022-10-14T13:47:30.527Z,78.84
2022-10-14T13:49:44.496Z,79.48
2022-10-14T13:52:04.591Z,79.48
2022-10-14T13:54:38.000Z,80.42
2022-10-14T14:00:33.194Z,80.97
2022-10-14T14:02:29.961Z,81.94
2022-10-14T14:04:51.789Z,82.69
2022-10-14T14:07:27.804Z,83.02
2022-10-14T14:09:39.745Z,83.73
2022-10-14T14:11:59.573Z,84.24
2022-10-14T14:14:23.051Z,84.38
2022-10-14T14:17:00.812Z,84.59
2022-10-14T14:19:29.292Z,84.38
2022-10-14T14:21:41.977Z,84.10
2022-10-14T14:23:54.756Z,84.73
2022-10-14T14:26:18.873Z,84.67
2022-10-14T14:28:36.501Z,84.94
2022-10-14T14:30:55.505Z,84.72
2022-10-14T14:33:13.745Z,85.08
2022-10-14T14:35:29.083Z,85.06
2022-10-14T14:37:56.495Z,84.93
2022-10-14T14:40:24.940Z,84.55
2022-10-14T14:42:42.777Z,84.61
2022-10-14T14:44:59.635Z,84.23
2022-10-14T14:47:13.228Z,84.29
2022-10-14T14:49:38.667Z,85.00
2022-10-14T14:51:53.324Z,84.69
2022-10-14T14:54:08.013Z,85.14
2022-10-14T14:56:32.452Z,85.01
2022-10-14T14:58:51.145Z,84.29
2022-10-14T15:01:19.535Z,84.69
2022-10-14T15:04:12.341Z,84.56
2022-10-14T15:06:27.130Z,84.87
2022-10-14T15:08:42.039Z,85.08
2022-10-14T15:10:57.773Z,85.04
2022-10-14T15:13:32.919Z,85.85
2022-10-14T15:15:35.278Z,85.41
2022-10-14T15:17:47.166Z,85.90
2022-10-14T15:19:50.092Z,86.38
2022-10-14T15:22:22.828Z,86.30
2022-10-14T15:25:00.681Z,85.96
2022-10-14T15:27:35.741Z,85.58
2022-10-14T15:30:17.709Z,85.92
2022-10-14T15:32:32.549Z,86.67
2022-10-14T15:34:46.038Z,86.49
2022-10-14T15:37:00.269Z,86.66
2022-10-14T15:39:14.914Z,86.75
2022-10-14T15:41:29.249Z,87.41
2022-10-14T15:43:42.976Z,88.00
2022-10-14T15:46:18.668Z,87.54
2022-10-14T15:48:30.768Z,87.64
2022-10-14T15:50:46.936Z,87.85
2022-10-14T15:52:59.312Z,87.94
2022-10-14T15:55:22.037Z,87.58
2022-10-14T15:57:35.287Z,87.76
2022-10-14T15:59:53.444Z,87.70
2022-10-14T16:02:33.192Z,88.02
2022-10-14T16:05:07.096Z,88.19
2022-10-14T16:07:20.410Z,87.64
2022-10-14T16:09:34.286Z,88.27
2022-10-14T16:11:49.445Z,88.17
2022-10-14T16:14:01.344Z,88.25
2022-10-14T16:16:19.276Z,87.63
2022-10-14T16:18:32.725Z,87.39
2022-10-14T16:20:46.178Z,87.76
2022-10-14T16:23:04.933Z,88.06
2022-10-14T16:25:33.774Z,87.30
2022-10-14T16:27:47.207Z,87.38
2022-10-14T16:30:01.417Z,86.68
2022-10-14T16:32:14.355Z,87.20
2022-10-14T16:35:08.649Z,87.00
2022-10-14T16:37:26.135Z,87.25
2022-10-14T16:39:40.468Z,86.71
2022-10-14T16:41:56.134Z,86.77
2022-10-14T16:44:24.753Z,87.44
2022-10-14T16:46:48.817Z,87.03
2022-10-14T16:48:51.026Z,87.26
2022-10-14T16:50:54.159Z,87.46
2022-10-14T16:53:16.594Z,87.54
2022-10-14T16:55:30.929Z,87.26
2022-10-14T16:57:44.378Z,87.11
2022-10-14T16:59:59.394Z,87.73
2022-10-14T17:02:15.316Z,87.91
2022-10-14T17:04:31.065Z,87.37
2022-10-14T17:06:42.949Z,87.98
2022-10-14T17:08:59.601Z,87.12
2022-10-14T17:11:12.983Z,87.82
2022-10-14T17:13:25.681Z,87.44
2022-10-14T17:15:45.398Z,87.04
2022-10-14T17:18:01.913Z,87.15
2022-10-14T17:20:16.218Z,87.32
2022-10-14T17:22:30.269Z,87.34
2022-10-14T17:24:44.350Z,87.30
2022-10-14T17:26:58.797Z,87.64
2022-10-14T17:29:15.698Z,87.52
2022-10-14T17:31:31.825Z,87.65
2022-10-14T17:33:45.331Z,87.97
2022-10-14T17:36:01.941Z,87.89
2022-10-14T17:38:14.679Z,87.72
2022-10-14T17:40:16.864Z,87.80
2022-10-14T17:42:19.293Z,88.07
2022-10-14T17:44:23.212Z,87.89
2022-10-14T17:46:27.393Z,88.14
2022-10-14T17:48:30.660Z,88.12
2022-10-14T17:50:38.801Z,88.46
2022-10-14T17:52:40.934Z,87.85
2022-10-14T17:54:57.566Z,88.02
2022-10-14T17:57:17.646Z,88.39
2022-10-14T17:59:33.015Z,88.18
2022-10-14T18:02:03.815Z,88.26
2022-10-14T18:06:37.588Z,88.95
2022-10-14T18:08:48.217Z,88.35
2022-10-14T18:10:50.618Z,88.30
2022-10-14T18:12:53.022Z,88.43
2022-10-14T18:14:55.294Z,88.59
2022-10-14T18:17:12.532Z,88.93
2022-10-14T18:19:27.291Z,89.26
2022-10-14T18:21:42.707Z,88.75
2022-10-14T18:23:58.430Z,88.88
2022-10-14T18:26:14.830Z,89.60
2022-10-14T18:28:34.871Z,89.47
2022-10-14T18:30:48.680Z,89.26
2022-10-14T18:33:02.964Z,89.66
2022-10-14T18:35:17.209Z,89.50
2022-10-14T18:37:38.585Z,90.03
2022-10-14T18:40:02.380Z,90.32
2022-10-14T18:42:19.914Z,90.24
2022-10-14T18:44:38.106Z,90.90
2022-10-14T18:46:53.535Z,91.49
2022-10-14T18:49:10.387Z,92.40
2022-10-14T18:51:27.511Z,92.46
2022-10-14T18:53:42.340Z,93.07
2022-10-14T18:55:44.832Z,93.43
2022-10-14T18:57:47.186Z,94.51
2022-10-14T19:00:03.022Z,95.27
2022-10-14T19:02:23.260Z,95.47
2022-10-14T19:04:36.745Z,95.86
2022-10-14T19:06:59.821Z,96.72
2022-10-14T19:09:14.742Z,96.89
2022-10-14T19:11:28.999Z,97.65
2022-10-14T19:13:43.654Z,97.85
2022-10-14T19:16:04.839Z,98.23
2022-10-14T19:18:19.329Z,98.79
2022-10-14T19:20:40.381Z,99.37
2022-10-14T19:22:56.620Z,99.39
2022-10-14T19:25:09.846Z,100.00
2022-10-14T19:27:25.830Z,100.00
2022-10-14T19:29:39.499Z,100.00
2022-10-14T19:31:54.655Z,100.00
2022-10-14T19:34:11.016Z,100.00
2022-10-14T19:36:29.758Z,100.00
2022-10-14T19:38:52.261Z,100.00
2022-10-14T19:41:08.869Z,100.00
2022-10-14T19:43:22.166Z,100.00
2022-10-14T19:45:41.016Z,100.00
2022-10-14T19:47:55.336Z,100.00
2022-10-14T19:50:10.055Z,100.00
2022-10-14T19:52:23.911Z,100.00
2022-10-14T19:54:37.975Z,100.00
2022-10-14T19:56:52.226Z,100.00
2022-10-14T19:59:06.644Z,100.00
2022-10-14T20:01:08.966Z,100.00
2022-10-14T20:03:11.380Z,100.00
2022-10-14T20:05:19.539Z,100.00
2022-10-14T20:07:22.004Z,100.00
2022-10-14T20:09:33.643Z,100.00
2022-10-14T20:11:50.009Z,100.00
2022-10-14T20:14:03.542Z,100.00
2022-10-14T20:16:17.734Z,100.00
2022-10-14T20:18:30.433Z,100.00
2022-10-14T20:20:44.451Z,100.00
2022-10-14T20:22:58.626Z,100.00
2022-10-14T20:25:15.717Z,100.00
2022-10-14T20:27:28.640Z,100.00
2022-10-14T20:29:43.104Z,100.00
2022-10-14T20:31:57.146Z,100.00
2022-10-14T20:34:11.515Z,100.00
2022-10-14T20:36:28.423Z,100.00
2022-10-14T20:38:42.093Z,100.00
2022-10-14T20:40:55.557Z,100.00
2022-10-14T20:43:08.244Z,100.00
2022-10-14T20:45:20.936Z,100.00
2022-10-14T20:47:34.947Z,100.00
2022-10-14T20:49:49.315Z,100.00
2022-10-14T20:52:01.950Z,100.00
2022-10-14T20:54:15.052Z,100.00
2022-10-14T20:56:32.459Z,100.00
2022-10-14T20:58:46.057Z,100.00
2022-10-14T21:01:07.746Z,100.00
2022-10-14T21:03:20.776Z,100.00
2022-10-14T21:05:37.719Z,100.00
2022-10-14T21:07:52.883Z,100.00
2022-10-14T21:10:07.096Z,100.00
2022-10-14T21:12:21.371Z,100.00
2022-10-14T21:14:35.024Z,100.00
2022-10-14T21:16:37.555Z,100.00
2022-10-14T21:18:39.791Z,100.00
2022-10-14T21:20:42.046Z,100.00
2022-10-14T21:22:55.648Z,100.00
2022-10-14T21:24:57.964Z,100.00
2022-10-14T21:27:00.104Z,100.00
2022-10-14T21:29:02.759Z,100.00
2022-10-14T21:31:10.097Z,100.00
2022-10-14T21:33:12.344Z,100.00
2022-10-14T21:35:14.567Z,100.00
2022-10-14T21:37:20.650Z,100.00
2022-10-14T21:39:39.005Z,100.00
2022-10-14T21:41:51.542Z,100.00
2022-10-14T21:44:05.381Z,100.00
2022-10-14T21:46:31.451Z,100.00
2022-10-14T21:48:45.604Z,100.00
2022-10-14T21:51:14.051Z,100.00
2022-10-14T21:53:27.168Z,100.00
2022-10-14T21:55:29.466Z,100.00
2022-10-14T21:57:31.639Z,100.00
2022-10-14T21:59:36.323Z,100.00
2022-10-14T22:01:39.198Z,100.00
2022-10-14T22:03:42.512Z,100.00
2022-10-14T22:05:45.081Z,100.00
2022-10-14T22:07:48.023Z,100.00
2022-10-14T22:10:00.539Z,100.00
2022-10-14T22:12:14.891Z,100.00
2022-10-14T22:14:43.109Z,100.00
2022-10-14T22:16:55.963Z,100.00
2022-10-14T22:19:11.865Z,100.00
2022-10-14T22:21:26.030Z,100.00
2022-10-14T22:23:40.455Z,100.00
2022-10-14T22:25:45.817Z,100.00
2022-10-14T22:27:47.866Z,100.00
2022-10-14T22:29:49.981Z,100.00
2022-10-14T22:31:52.304Z,100.00
2022-10-14T22:33:54.853Z,100.00
2022-10-14T22:36:10.456Z,100.00
2022-10-14T22:38:13.393Z,100.00
2022-10-14T22:40:26.388Z,100.00
2022-10-14T22:42:42.054Z,100.00
2022-10-14T22:44:54.708Z,100.00
2022-10-14T22:47:07.392Z,100.00
2022-10-14T22:49:20.040Z,100.00
2022-10-14T22:51:40.782Z,100.00
2022-10-14T22:53:54.118Z,100.00
2022-10-14T22:56:10.276Z,100.00
2022-10-14T22:58:23.330Z,100.00
2022-10-14T23:00:35.849Z,100.00
2022-10-14T23:02:49.967Z,100.00
2022-10-14T23:05:02.420Z,100.00
2022-10-14T23:07:15.273Z,100.00
2022-10-14T23:09:17.614Z,100.00
2022-10-14T23:11:22.758Z,100.00
2022-10-14T23:13:25.905Z,100.00
2022-10-14T23:15:28.717Z,100.00
2022-10-14T23:17:31.073Z,100.00
2022-10-14T23:19:33.480Z,100.00
2022-10-14T23:21:37.834Z,100.00
2022-10-14T23:23:40.623Z,100.00
2022-10-14T23:25:53.530Z,100.00
2022-10-14T23:28:05.702Z,100.00
2022-10-14T23:30:18.663Z,100.00
2022-10-14T23:32:31.171Z,100.00
2022-10-14T23:34:43.506Z,100.00
2022-10-14T23:36:56.428Z,100.00
2022-10-14T23:39:09.378Z,100.00
2022-10-14T23:41:22.921Z,100.00
2022-10-14T23:43:35.756Z,100.00
2022-10-14T23:45:48.497Z,100.00
2022-10-14T23:48:00.908Z,100.00
2022-10-14T23:50:13.831Z,100.00
2022-10-14T23:52:26.857Z,100.00
2022-10-14T23:54:29.021Z,100.00
2022-10-14T23:56:31.169Z,100.00
2022-10-14T23:58:33.857Z,100.00
